sensor_id;sensor_type;location;lat;lon;timestamp;P1;durP1;ratioP1;P2;durP2;ratioP2
30072;SDS011;16897;52.422;13.678;2022-12-18T00:02:14;17.25;;;8.27;;
30072;SDS011;16897;52.422;13.678;2022-12-18T00:06:16;16.63;;;7.88;;
30072;SDS011;16897;52.422;13.678;2022-12-18T00:10:19;15.57;;;7.30;;
30072;SDS011;16897;52.422;13.678;2022-12-18T00:14:20;15.52;;;7.32;;
30072;SDS011;16897;52.422;13.678;2022-12-18T00:18:22;14.63;;;8.30;;
30072;SDS011;16897;52.422;13.678;2022-12-18T00:22:24;16.42;;;8.45;;
30072;SDS011;16897;52.422;13.678;2022-12-18T00:26:30;22.67;;;9.98;;
30072;SDS011;16897;52.422;13.678;2022-12-18T00:30:36;23.58;;;10.32;;
30072;SDS011;16897;52.422;13.678;2022-12-18T00:34:37;15.90;;;8.23;;
30072;SDS011;16897;52.422;13.678;2022-12-18T00:38:39;18.95;;;8.52;;
30072;SDS011;16897;52.422;13.678;2022-12-18T00:42:41;15.10;;;7.22;;
30072;SDS011;16897;52.422;13.678;2022-12-18T00:46:59;16.67;;;7.97;;
30072;SDS011;16897;52.422;13.678;2022-12-18T00:51:01;18.95;;;9.40;;
30072;SDS011;16897;52.422;13.678;2022-12-18T00:55:03;15.63;;;8.25;;
30072;SDS011;16897;52.422;13.678;2022-12-18T00:59:05;16.85;;;7.70;;
30072;SDS011;16897;52.422;13.678;2022-12-18T01:03:07;14.77;;;7.00;;
30072;SDS011;16897;52.422;13.678;2022-12-18T01:07:14;14.73;;;8.02;;
30072;SDS011;16897;52.422;13.678;2022-12-18T01:11:17;15.25;;;8.38;;
30072;SDS011;16897;52.422;13.678;2022-12-18T01:15:20;11.25;;;6.18;;
30072;SDS011;16897;52.422;13.678;2022-12-18T01:19:22;14.18;;;6.63;;
30072;SDS011;16897;52.422;13.678;2022-12-18T01:23:25;11.73;;;6.32;;
30072;SDS011;16897;52.422;13.678;2022-12-18T01:27:28;17.65;;;9.73;;
30072;SDS011;16897;52.422;13.678;2022-12-18T01:31:31;15.48;;;6.85;;
30072;SDS011;16897;52.422;13.678;2022-12-18T01:35:40;13.32;;;7.13;;
30072;SDS011;16897;52.422;13.678;2022-12-18T01:39:43;15.98;;;7.70;;
30072;SDS011;16897;52.422;13.678;2022-12-18T01:48:07;17.30;;;6.85;;
30072;SDS011;16897;52.422;13.678;2022-12-18T01:52:11;16.23;;;7.82;;
30072;SDS011;16897;52.422;13.678;2022-12-18T01:56:14;18.08;;;7.97;;
30072;SDS011;16897;52.422;13.678;2022-12-18T02:00:21;18.20;;;10.18;;
30072;SDS011;16897;52.422;13.678;2022-12-18T02:04:26;16.30;;;7.97;;
30072;SDS011;16897;52.422;13.678;2022-12-18T02:08:41;16.52;;;9.25;;
30072;SDS011;16897;52.422;13.678;2022-12-18T02:17:19;18.02;;;7.40;;
30072;SDS011;16897;52.422;13.678;2022-12-18T02:26:10;13.88;;;6.65;;
30072;SDS011;16897;52.422;13.678;2022-12-18T02:30:27;18.48;;;9.27;;
30072;SDS011;16897;52.422;13.678;2022-12-18T02:34:34;17.38;;;7.78;;
30072;SDS011;16897;52.422;13.678;2022-12-18T02:38:42;16.50;;;8.27;;
30072;SDS011;16897;52.422;13.678;2022-12-18T02:42:48;14.20;;;7.25;;
30072;SDS011;16897;52.422;13.678;2022-12-18T02:46:52;17.43;;;9.67;;
30072;SDS011;16897;52.422;13.678;2022-12-18T02:59:44;19.77;;;9.32;;
30072;SDS011;16897;52.422;13.678;2022-12-18T03:08:30;16.42;;;8.82;;
30072;SDS011;16897;52.422;13.678;2022-12-18T03:12:40;20.88;;;9.98;;
30072;SDS011;16897;52.422;13.678;2022-12-18T03:16:54;21.50;;;10.70;;
30072;SDS011;16897;52.422;13.678;2022-12-18T03:21:04;16.00;;;8.30;;
30072;SDS011;16897;52.422;13.678;2022-12-18T03:25:13;17.58;;;8.13;;
30072;SDS011;16897;52.422;13.678;2022-12-18T03:29:18;20.13;;;9.30;;
30072;SDS011;16897;52.422;13.678;2022-12-18T03:33:51;21.83;;;10.40;;
30072;SDS011;16897;52.422;13.678;2022-12-18T03:38:01;21.35;;;9.27;;
30072;SDS011;16897;52.422;13.678;2022-12-18T03:51:21;13.65;;;6.93;;
30072;SDS011;16897;52.422;13.678;2022-12-18T03:55:41;15.00;;;7.55;;
30072;SDS011;16897;52.422;13.678;2022-12-18T03:59:45;16.58;;;8.50;;
30072;SDS011;16897;52.422;13.678;2022-12-18T04:03:55;14.40;;;7.80;;
30072;SDS011;16897;52.422;13.678;2022-12-18T04:08:00;16.98;;;8.75;;
30072;SDS011;16897;52.422;13.678;2022-12-18T04:12:03;18.63;;;8.63;;
30072;SDS011;16897;52.422;13.678;2022-12-18T04:16:06;18.50;;;9.63;;
30072;SDS011;16897;52.422;13.678;2022-12-18T04:20:13;15.05;;;7.53;;
30072;SDS011;16897;52.422;13.678;2022-12-18T04:24:18;13.45;;;7.38;;
30072;SDS011;16897;52.422;13.678;2022-12-18T04:28:29;13.57;;;7.60;;
30072;SDS011;16897;52.422;13.678;2022-12-18T04:32:32;15.55;;;7.55;;
30072;SDS011;16897;52.422;13.678;2022-12-18T04:36:36;12.88;;;7.43;;
30072;SDS011;16897;52.422;13.678;2022-12-18T04:40:38;14.95;;;7.25;;
30072;SDS011;16897;52.422;13.678;2022-12-18T04:44:46;15.77;;;8.02;;
30072;SDS011;16897;52.422;13.678;2022-12-18T04:48:48;22.42;;;10.20;;
30072;SDS011;16897;52.422;13.678;2022-12-18T04:52:50;16.67;;;8.60;;
30072;SDS011;16897;52.422;13.678;2022-12-18T04:56:52;18.35;;;9.25;;
30072;SDS011;16897;52.422;13.678;2022-12-18T05:00:53;16.58;;;7.57;;
30072;SDS011;16897;52.422;13.678;2022-12-18T05:04:55;15.50;;;6.90;;
30072;SDS011;16897;52.422;13.678;2022-12-18T05:08:57;11.80;;;6.72;;
30072;SDS011;16897;52.422;13.678;2022-12-18T05:13:00;17.85;;;7.30;;
30072;SDS011;16897;52.422;13.678;2022-12-18T05:17:02;16.98;;;8.02;;
30072;SDS011;16897;52.422;13.678;2022-12-18T05:21:04;15.00;;;6.90;;
30072;SDS011;16897;52.422;13.678;2022-12-18T05:25:06;16.85;;;7.15;;
30072;SDS011;16897;52.422;13.678;2022-12-18T05:29:08;15.40;;;7.85;;
30072;SDS011;16897;52.422;13.678;2022-12-18T05:33:13;14.15;;;8.07;;
30072;SDS011;16897;52.422;13.678;2022-12-18T05:37:15;15.95;;;7.38;;
30072;SDS011;16897;52.422;13.678;2022-12-18T05:41:17;15.60;;;7.95;;
30072;SDS011;16897;52.422;13.678;2022-12-18T05:45:19;19.20;;;8.80;;
30072;SDS011;16897;52.422;13.678;2022-12-18T05:49:21;18.15;;;8.35;;
30072;SDS011;16897;52.422;13.678;2022-12-18T05:53:22;21.33;;;8.93;;
30072;SDS011;16897;52.422;13.678;2022-12-18T05:57:24;18.73;;;9.90;;
30072;SDS011;16897;52.422;13.678;2022-12-18T06:01:26;14.93;;;6.68;;
30072;SDS011;16897;52.422;13.678;2022-12-18T06:05:28;19.27;;;9.55;;
30072;SDS011;16897;52.422;13.678;2022-12-18T06:09:34;16.45;;;8.15;;
30072;SDS011;16897;52.422;13.678;2022-12-18T06:13:37;14.48;;;7.45;;
30072;SDS011;16897;52.422;13.678;2022-12-18T06:17:39;15.27;;;7.63;;
30072;SDS011;16897;52.422;13.678;2022-12-18T06:21:41;13.65;;;7.78;;
30072;SDS011;16897;52.422;13.678;2022-12-18T06:25:43;20.05;;;8.50;;
30072;SDS011;16897;52.422;13.678;2022-12-18T06:29:45;14.40;;;7.45;;
30072;SDS011;16897;52.422;13.678;2022-12-18T06:33:47;14.32;;;7.60;;
30072;SDS011;16897;52.422;13.678;2022-12-18T06:37:49;20.98;;;9.93;;
30072;SDS011;16897;52.422;13.678;2022-12-18T06:41:50;24.60;;;10.05;;
30072;SDS011;16897;52.422;13.678;2022-12-18T06:45:57;21.27;;;11.02;;
30072;SDS011;16897;52.422;13.678;2022-12-18T06:50:01;24.73;;;10.80;;
30072;SDS011;16897;52.422;13.678;2022-12-18T06:54:04;19.63;;;10.48;;
30072;SDS011;16897;52.422;13.678;2022-12-18T06:58:06;15.98;;;8.52;;
30072;SDS011;16897;52.422;13.678;2022-12-18T07:02:10;15.32;;;8.65;;
30072;SDS011;16897;52.422;13.678;2022-12-18T07:06:16;18.65;;;9.88;;
30072;SDS011;16897;52.422;13.678;2022-12-18T07:10:20;21.58;;;10.90;;
30072;SDS011;16897;52.422;13.678;2022-12-18T07:14:22;19.20;;;10.02;;
30072;SDS011;16897;52.422;13.678;2022-12-18T07:18:24;18.10;;;8.88;;
30072;SDS011;16897;52.422;13.678;2022-12-18T07:22:26;16.58;;;8.20;;
30072;SDS011;16897;52.422;13.678;2022-12-18T07:26:28;20.23;;;8.32;;
30072;SDS011;16897;52.422;13.678;2022-12-18T07:30:33;18.65;;;8.05;;
30072;SDS011;16897;52.422;13.678;2022-12-18T07:34:38;23.92;;;10.68;;
30072;SDS011;16897;52.422;13.678;2022-12-18T07:38:40;21.70;;;10.45;;
30072;SDS011;16897;52.422;13.678;2022-12-18T07:42:42;19.73;;;8.60;;
30072;SDS011;16897;52.422;13.678;2022-12-18T07:46:44;18.52;;;9.40;;
30072;SDS011;16897;52.422;13.678;2022-12-18T07:50:46;15.55;;;8.02;;
30072;SDS011;16897;52.422;13.678;2022-12-18T07:54:48;20.70;;;10.18;;
30072;SDS011;16897;52.422;13.678;2022-12-18T07:58:51;26.40;;;11.88;;
30072;SDS011;16897;52.422;13.678;2022-12-18T08:02:52;28.25;;;12.27;;
30072;SDS011;16897;52.422;13.678;2022-12-18T08:06:54;28.17;;;12.43;;
30072;SDS011;16897;52.422;13.678;2022-12-18T08:10:56;26.08;;;10.45;;
30072;SDS011;16897;52.422;13.678;2022-12-18T08:14:58;25.25;;;11.48;;
30072;SDS011;16897;52.422;13.678;2022-12-18T08:19:00;21.00;;;11.02;;
30072;SDS011;16897;52.422;13.678;2022-12-18T08:23:03;21.25;;;10.05;;
30072;SDS011;16897;52.422;13.678;2022-12-18T08:27:04;20.67;;;9.48;;
30072;SDS011;16897;52.422;13.678;2022-12-18T08:31:06;23.70;;;10.85;;
30072;SDS011;16897;52.422;13.678;2022-12-18T08:35:08;26.80;;;9.90;;
30072;SDS011;16897;52.422;13.678;2022-12-18T08:39:12;24.50;;;10.98;;
30072;SDS011;16897;52.422;13.678;2022-12-18T08:43:14;21.67;;;9.70;;
30072;SDS011;16897;52.422;13.678;2022-12-18T08:47:34;22.17;;;10.40;;
30072;SDS011;16897;52.422;13.678;2022-12-18T08:51:36;30.50;;;12.57;;
30072;SDS011;16897;52.422;13.678;2022-12-18T08:55:39;25.52;;;11.38;;
30072;SDS011;16897;52.422;13.678;2022-12-18T08:59:40;26.48;;;10.68;;
30072;SDS011;16897;52.422;13.678;2022-12-18T09:03:42;24.98;;;11.68;;
30072;SDS011;16897;52.422;13.678;2022-12-18T09:07:48;18.88;;;8.98;;
30072;SDS011;16897;52.422;13.678;2022-12-18T09:11:49;22.98;;;10.20;;
30072;SDS011;16897;52.422;13.678;2022-12-18T09:15:52;24.88;;;10.25;;
30072;SDS011;16897;52.422;13.678;2022-12-18T09:19:56;24.73;;;11.02;;
30072;SDS011;16897;52.422;13.678;2022-12-18T09:23:57;23.63;;;10.40;;
30072;SDS011;16897;52.422;13.678;2022-12-18T09:28:00;27.52;;;11.25;;
30072;SDS011;16897;52.422;13.678;2022-12-18T09:32:03;21.70;;;9.63;;
30072;SDS011;16897;52.422;13.678;2022-12-18T09:36:05;17.20;;;9.15;;
30072;SDS011;16897;52.422;13.678;2022-12-18T09:40:18;20.27;;;9.20;;
30072;SDS011;16897;52.422;13.678;2022-12-18T09:44:25;21.88;;;11.77;;
30072;SDS011;16897;52.422;13.678;2022-12-18T09:48:38;18.73;;;10.27;;
30072;SDS011;16897;52.422;13.678;2022-12-18T09:52:46;21.55;;;9.32;;
30072;SDS011;16897;52.422;13.678;2022-12-18T09:56:54;20.42;;;9.65;;
30072;SDS011;16897;52.422;13.678;2022-12-18T10:00:56;26.02;;;11.35;;
30072;SDS011;16897;52.422;13.678;2022-12-18T10:09:41;22.02;;;10.07;;
30072;SDS011;16897;52.422;13.678;2022-12-18T10:27:17;21.42;;;9.60;;
30072;SDS011;16897;52.422;13.678;2022-12-18T10:31:23;17.23;;;9.02;;
30072;SDS011;16897;52.422;13.678;2022-12-18T10:35:26;19.92;;;8.70;;
30072;SDS011;16897;52.422;13.678;2022-12-18T10:39:28;21.50;;;9.60;;
30072;SDS011;16897;52.422;13.678;2022-12-18T10:43:31;22.00;;;9.25;;
30072;SDS011;16897;52.422;13.678;2022-12-18T10:47:35;18.90;;;8.80;;
30072;SDS011;16897;52.422;13.678;2022-12-18T10:51:42;18.20;;;8.43;;
30072;SDS011;16897;52.422;13.678;2022-12-18T10:55:44;17.10;;;7.47;;
30072;SDS011;16897;52.422;13.678;2022-12-18T10:59:52;14.57;;;7.40;;
30072;SDS011;16897;52.422;13.678;2022-12-18T11:07:58;13.55;;;6.88;;
30072;SDS011;16897;52.422;13.678;2022-12-18T11:12:23;19.00;;;8.13;;
30072;SDS011;16897;52.422;13.678;2022-12-18T11:16:27;16.83;;;8.38;;
30072;SDS011;16897;52.422;13.678;2022-12-18T11:20:34;12.95;;;7.07;;
30072;SDS011;16897;52.422;13.678;2022-12-18T11:24:37;15.48;;;6.88;;
30072;SDS011;16897;52.422;13.678;2022-12-18T11:28:44;15.30;;;7.63;;
30072;SDS011;16897;52.422;13.678;2022-12-18T11:33:19;14.80;;;7.20;;
30072;SDS011;16897;52.422;13.678;2022-12-18T11:37:33;16.87;;;7.70;;
30072;SDS011;16897;52.422;13.678;2022-12-18T11:41:38;16.27;;;7.88;;
30072;SDS011;16897;52.422;13.678;2022-12-18T11:46:14;13.55;;;8.52;;
30072;SDS011;16897;52.422;13.678;2022-12-18T11:50:26;21.23;;;10.15;;
30072;SDS011;16897;52.422;13.678;2022-12-18T11:54:47;23.25;;;11.65;;
30072;SDS011;16897;52.422;13.678;2022-12-18T12:03:56;19.35;;;8.95;;
30072;SDS011;16897;52.422;13.678;2022-12-18T12:08:34;16.85;;;7.82;;
30072;SDS011;16897;52.422;13.678;2022-12-18T12:12:48;19.17;;;10.00;;
30072;SDS011;16897;52.422;13.678;2022-12-18T12:17:13;22.88;;;10.52;;
30072;SDS011;16897;52.422;13.678;2022-12-18T12:21:33;15.52;;;8.15;;
30072;SDS011;16897;52.422;13.678;2022-12-18T12:26:10;21.73;;;11.57;;
30072;SDS011;16897;52.422;13.678;2022-12-18T12:39:53;19.92;;;10.93;;
30072;SDS011;16897;52.422;13.678;2022-12-18T12:43:56;24.90;;;10.63;;
30072;SDS011;16897;52.422;13.678;2022-12-18T12:48:02;25.73;;;9.63;;
30072;SDS011;16897;52.422;13.678;2022-12-18T12:52:15;21.63;;;9.68;;
30072;SDS011;16897;52.422;13.678;2022-12-18T12:56:59;16.58;;;7.13;;
30072;SDS011;16897;52.422;13.678;2022-12-18T13:05:31;17.05;;;8.20;;
30072;SDS011;16897;52.422;13.678;2022-12-18T13:14:39;16.05;;;7.97;;
30072;SDS011;16897;52.422;13.678;2022-12-18T13:18:47;17.00;;;8.65;;
30072;SDS011;16897;52.422;13.678;2022-12-18T13:22:58;16.02;;;10.13;;
30072;SDS011;16897;52.422;13.678;2022-12-18T13:27:00;16.08;;;8.55;;
30072;SDS011;16897;52.422;13.678;2022-12-18T13:32:01;22.67;;;10.73;;
30072;SDS011;16897;52.422;13.678;2022-12-18T13:36:09;21.20;;;11.07;;
30072;SDS011;16897;52.422;13.678;2022-12-18T13:44:40;20.05;;;9.73;;
30072;SDS011;16897;52.422;13.678;2022-12-18T13:48:47;20.75;;;9.95;;
30072;SDS011;16897;52.422;13.678;2022-12-18T13:53:19;16.85;;;9.65;;
30072;SDS011;16897;52.422;13.678;2022-12-18T13:57:43;20.05;;;10.52;;
30072;SDS011;16897;52.422;13.678;2022-12-18T14:01:46;21.25;;;10.85;;
30072;SDS011;16897;52.422;13.678;2022-12-18T14:06:00;16.85;;;9.45;;
30072;SDS011;16897;52.422;13.678;2022-12-18T14:10:11;16.70;;;8.60;;
30072;SDS011;16897;52.422;13.678;2022-12-18T14:14:16;18.15;;;8.45;;
30072;SDS011;16897;52.422;13.678;2022-12-18T14:22:39;14.23;;;8.05;;
30072;SDS011;16897;52.422;13.678;2022-12-18T14:26:47;13.80;;;8.77;;
30072;SDS011;16897;52.422;13.678;2022-12-18T14:30:50;24.27;;;13.60;;
30072;SDS011;16897;52.422;13.678;2022-12-18T14:34:53;13.65;;;7.85;;
30072;SDS011;16897;52.422;13.678;2022-12-18T14:38:57;13.50;;;8.48;;
30072;SDS011;16897;52.422;13.678;2022-12-18T14:43:00;13.85;;;7.13;;
30072;SDS011;16897;52.422;13.678;2022-12-18T14:47:03;11.70;;;6.70;;
30072;SDS011;16897;52.422;13.678;2022-12-18T14:51:15;12.68;;;8.10;;
30072;SDS011;16897;52.422;13.678;2022-12-18T14:55:20;14.32;;;7.97;;
30072;SDS011;16897;52.422;13.678;2022-12-18T14:59:23;12.82;;;7.18;;
30072;SDS011;16897;52.422;13.678;2022-12-18T15:03:27;17.52;;;8.95;;
30072;SDS011;16897;52.422;13.678;2022-12-18T15:07:39;17.13;;;9.15;;
30072;SDS011;16897;52.422;13.678;2022-12-18T15:11:48;11.05;;;7.20;;
30072;SDS011;16897;52.422;13.678;2022-12-18T15:15:51;17.75;;;9.48;;
30072;SDS011;16897;52.422;13.678;2022-12-18T15:20:01;15.40;;;8.40;;
30072;SDS011;16897;52.422;13.678;2022-12-18T15:24:17;17.55;;;8.95;;
30072;SDS011;16897;52.422;13.678;2022-12-18T15:28:35;16.23;;;8.98;;
30072;SDS011;16897;52.422;13.678;2022-12-18T15:32:52;15.80;;;9.25;;
30072;SDS011;16897;52.422;13.678;2022-12-18T15:37:16;18.60;;;9.50;;
30072;SDS011;16897;52.422;13.678;2022-12-18T15:41:19;17.58;;;10.27;;
30072;SDS011;16897;52.422;13.678;2022-12-18T15:45:23;14.25;;;7.90;;
30072;SDS011;16897;52.422;13.678;2022-12-18T15:49:24;18.40;;;9.10;;
30072;SDS011;16897;52.422;13.678;2022-12-18T15:53:30;12.10;;;8.23;;
30072;SDS011;16897;52.422;13.678;2022-12-18T15:57:34;15.25;;;9.27;;
30072;SDS011;16897;52.422;13.678;2022-12-18T16:01:36;14.35;;;8.20;;
30072;SDS011;16897;52.422;13.678;2022-12-18T16:05:37;20.08;;;9.68;;
30072;SDS011;16897;52.422;13.678;2022-12-18T16:09:39;12.90;;;7.10;;
30072;SDS011;16897;52.422;13.678;2022-12-18T16:13:42;17.95;;;9.18;;
30072;SDS011;16897;52.422;13.678;2022-12-18T16:17:46;18.73;;;10.52;;
30072;SDS011;16897;52.422;13.678;2022-12-18T16:21:50;16.63;;;9.00;;
30072;SDS011;16897;52.422;13.678;2022-12-18T16:25:53;20.23;;;9.43;;
30072;SDS011;16897;52.422;13.678;2022-12-18T16:29:55;18.40;;;9.75;;
30072;SDS011;16897;52.422;13.678;2022-12-18T16:34:18;17.17;;;8.98;;
30072;SDS011;16897;52.422;13.678;2022-12-18T16:38:23;14.38;;;8.30;;
30072;SDS011;16897;52.422;13.678;2022-12-18T16:42:25;17.17;;;9.13;;
30072;SDS011;16897;52.422;13.678;2022-12-18T16:46:27;15.88;;;7.90;;
30072;SDS011;16897;52.422;13.678;2022-12-18T16:50:30;14.20;;;8.15;;
30072;SDS011;16897;52.422;13.678;2022-12-18T16:54:32;15.45;;;9.32;;
30072;SDS011;16897;52.422;13.678;2022-12-18T16:58:35;13.68;;;8.40;;
30072;SDS011;16897;52.422;13.678;2022-12-18T17:02:37;14.82;;;7.60;;
30072;SDS011;16897;52.422;13.678;2022-12-18T17:06:40;14.60;;;7.88;;
30072;SDS011;16897;52.422;13.678;2022-12-18T17:10:45;12.48;;;7.65;;
30072;SDS011;16897;52.422;13.678;2022-12-18T17:14:46;15.43;;;8.73;;
30072;SDS011;16897;52.422;13.678;2022-12-18T17:18:48;17.67;;;9.52;;
30072;SDS011;16897;52.422;13.678;2022-12-18T17:22:50;13.20;;;7.90;;
30072;SDS011;16897;52.422;13.678;2022-12-18T17:26:52;16.20;;;8.75;;
30072;SDS011;16897;52.422;13.678;2022-12-18T17:30:54;16.30;;;8.27;;
30072;SDS011;16897;52.422;13.678;2022-12-18T17:34:56;15.00;;;9.07;;
30072;SDS011;16897;52.422;13.678;2022-12-18T17:38:59;20.13;;;10.05;;
30072;SDS011;16897;52.422;13.678;2022-12-18T17:43:02;13.93;;;8.80;;
30072;SDS011;16897;52.422;13.678;2022-12-18T17:47:03;16.73;;;9.60;;
30072;SDS011;16897;52.422;13.678;2022-12-18T17:51:06;19.35;;;10.15;;
30072;SDS011;16897;52.422;13.678;2022-12-18T17:59:12;16.02;;;8.45;;
30072;SDS011;16897;52.422;13.678;2022-12-18T18:03:14;18.52;;;9.45;;
30072;SDS011;16897;52.422;13.678;2022-12-18T18:07:16;20.40;;;9.93;;
30072;SDS011;16897;52.422;13.678;2022-12-18T18:11:18;21.33;;;9.98;;
30072;SDS011;16897;52.422;13.678;2022-12-18T18:15:40;16.33;;;9.40;;
30072;SDS011;16897;52.422;13.678;2022-12-18T18:19:42;19.88;;;10.25;;
30072;SDS011;16897;52.422;13.678;2022-12-18T18:23:43;18.92;;;10.02;;
30072;SDS011;16897;52.422;13.678;2022-12-18T18:27:45;21.40;;;11.10;;
30072;SDS011;16897;52.422;13.678;2022-12-18T18:31:46;19.23;;;10.30;;
30072;SDS011;16897;52.422;13.678;2022-12-18T18:35:48;19.67;;;10.18;;
30072;SDS011;16897;52.422;13.678;2022-12-18T18:39:49;20.90;;;11.65;;
30072;SDS011;16897;52.422;13.678;2022-12-18T18:43:54;24.02;;;12.38;;
30072;SDS011;16897;52.422;13.678;2022-12-18T18:47:58;21.50;;;10.95;;
30072;SDS011;16897;52.422;13.678;2022-12-18T18:52:00;23.10;;;11.60;;
30072;SDS011;16897;52.422;13.678;2022-12-18T18:56:02;30.02;;;14.57;;
30072;SDS011;16897;52.422;13.678;2022-12-18T19:00:07;22.90;;;11.95;;
30072;SDS011;16897;52.422;13.678;2022-12-18T19:04:09;23.25;;;12.18;;
30072;SDS011;16897;52.422;13.678;2022-12-18T19:08:11;22.90;;;11.45;;
30072;SDS011;16897;52.422;13.678;2022-12-18T19:12:13;29.50;;;14.32;;
30072;SDS011;16897;52.422;13.678;2022-12-18T19:16:33;31.17;;;14.10;;
30072;SDS011;16897;52.422;13.678;2022-12-18T19:20:35;24.65;;;12.95;;
30072;SDS011;16897;52.422;13.678;2022-12-18T19:24:36;26.00;;;12.45;;
30072;SDS011;16897;52.422;13.678;2022-12-18T19:28:39;27.77;;;14.05;;
30072;SDS011;16897;52.422;13.678;2022-12-18T19:32:41;32.47;;;15.50;;
30072;SDS011;16897;52.422;13.678;2022-12-18T19:36:43;30.85;;;12.45;;
30072;SDS011;16897;52.422;13.678;2022-12-18T19:40:44;32.95;;;16.10;;
30072;SDS011;16897;52.422;13.678;2022-12-18T19:44:46;31.48;;;15.48;;
30072;SDS011;16897;52.422;13.678;2022-12-18T19:48:48;28.48;;;12.63;;
30072;SDS011;16897;52.422;13.678;2022-12-18T19:52:50;22.50;;;12.45;;
30072;SDS011;16897;52.422;13.678;2022-12-18T19:56:52;25.45;;;12.52;;
30072;SDS011;16897;52.422;13.678;2022-12-18T20:00:54;28.90;;;12.68;;
30072;SDS011;16897;52.422;13.678;2022-12-18T20:04:56;25.75;;;12.77;;
30072;SDS011;16897;52.422;13.678;2022-12-18T20:08:58;26.20;;;13.25;;
30072;SDS011;16897;52.422;13.678;2022-12-18T20:13:05;21.40;;;11.55;;
30072;SDS011;16897;52.422;13.678;2022-12-18T20:17:07;23.27;;;11.73;;
30072;SDS011;16897;52.422;13.678;2022-12-18T20:21:08;19.88;;;11.02;;
30072;SDS011;16897;52.422;13.678;2022-12-18T20:25:10;28.42;;;14.23;;
30072;SDS011;16897;52.422;13.678;2022-12-18T20:29:11;24.20;;;12.38;;
30072;SDS011;16897;52.422;13.678;2022-12-18T20:33:13;24.05;;;12.60;;
30072;SDS011;16897;52.422;13.678;2022-12-18T20:37:15;28.05;;;15.02;;
30072;SDS011;16897;52.422;13.678;2022-12-18T20:41:19;25.13;;;13.25;;
30072;SDS011;16897;52.422;13.678;2022-12-18T20:45:22;29.58;;;13.50;;
30072;SDS011;16897;52.422;13.678;2022-12-18T20:49:24;27.27;;;12.80;;
30072;SDS011;16897;52.422;13.678;2022-12-18T20:53:27;26.92;;;12.80;;
30072;SDS011;16897;52.422;13.678;2022-12-18T20:57:29;25.58;;;12.25;;
30072;SDS011;16897;52.422;13.678;2022-12-18T21:01:31;25.38;;;13.48;;
30072;SDS011;16897;52.422;13.678;2022-12-18T21:05:32;25.25;;;12.55;;
30072;SDS011;16897;52.422;13.678;2022-12-18T21:09:34;24.45;;;12.50;;
30072;SDS011;16897;52.422;13.678;2022-12-18T21:13:35;21.02;;;12.35;;
30072;SDS011;16897;52.422;13.678;2022-12-18T21:17:37;23.83;;;11.45;;
30072;SDS011;16897;52.422;13.678;2022-12-18T21:21:39;22.92;;;11.52;;
30072;SDS011;16897;52.422;13.678;2022-12-18T21:25:41;24.80;;;11.70;;
30072;SDS011;16897;52.422;13.678;2022-12-18T21:29:43;27.40;;;13.38;;
30072;SDS011;16897;52.422;13.678;2022-12-18T21:33:46;27.25;;;13.68;;
30072;SDS011;16897;52.422;13.678;2022-12-18T21:37:48;27.75;;;13.82;;
30072;SDS011;16897;52.422;13.678;2022-12-18T21:41:50;25.70;;;13.35;;
30072;SDS011;16897;52.422;13.678;2022-12-18T21:46:11;24.92;;;12.43;;
30072;SDS011;16897;52.422;13.678;2022-12-18T21:50:12;31.23;;;14.77;;
30072;SDS011;16897;52.422;13.678;2022-12-18T21:54:18;23.98;;;11.15;;
30072;SDS011;16897;52.422;13.678;2022-12-18T21:58:20;26.20;;;12.48;;
30072;SDS011;16897;52.422;13.678;2022-12-18T22:02:22;23.42;;;13.02;;
30072;SDS011;16897;52.422;13.678;2022-12-18T22:06:24;25.30;;;12.32;;
30072;SDS011;16897;52.422;13.678;2022-12-18T22:10:25;26.38;;;12.77;;
30072;SDS011;16897;52.422;13.678;2022-12-18T22:14:27;26.23;;;12.90;;
30072;SDS011;16897;52.422;13.678;2022-12-18T22:18:29;23.95;;;11.48;;
30072;SDS011;16897;52.422;13.678;2022-12-18T22:22:30;27.27;;;10.82;;
30072;SDS011;16897;52.422;13.678;2022-12-18T22:26:33;25.10;;;10.73;;
30072;SDS011;16897;52.422;13.678;2022-12-18T22:30:36;20.25;;;11.00;;
30072;SDS011;16897;52.422;13.678;2022-12-18T22:34:38;24.67;;;10.82;;
30072;SDS011;16897;52.422;13.678;2022-12-18T22:38:39;23.27;;;11.43;;
30072;SDS011;16897;52.422;13.678;2022-12-18T22:42:41;19.95;;;10.60;;
30072;SDS011;16897;52.422;13.678;2022-12-18T22:46:43;23.77;;;11.70;;
30072;SDS011;16897;52.422;13.678;2022-12-18T22:50:49;18.52;;;9.98;;
30072;SDS011;16897;52.422;13.678;2022-12-18T22:54:50;21.88;;;11.10;;
30072;SDS011;16897;52.422;13.678;2022-12-18T22:58:53;24.98;;;11.45;;
30072;SDS011;16897;52.422;13.678;2022-12-18T23:02:54;22.45;;;10.65;;
30072;SDS011;16897;52.422;13.678;2022-12-18T23:06:56;22.77;;;10.73;;
30072;SDS011;16897;52.422;13.678;2022-12-18T23:10:58;25.13;;;13.05;;
30072;SDS011;16897;52.422;13.678;2022-12-18T23:15:00;21.70;;;11.18;;
30072;SDS011;16897;52.422;13.678;2022-12-18T23:19:02;25.02;;;12.20;;
30072;SDS011;16897;52.422;13.678;2022-12-18T23:23:04;20.00;;;10.50;;
30072;SDS011;16897;52.422;13.678;2022-12-18T23:27:06;20.33;;;11.25;;
30072;SDS011;16897;52.422;13.678;2022-12-18T23:31:13;26.42;;;11.45;;
30072;SDS011;16897;52.422;13.678;2022-12-18T23:35:28;19.05;;;9.95;;
30072;SDS011;16897;52.422;13.678;2022-12-18T23:39:30;22.65;;;10.48;;
30072;SDS011;16897;52.422;13.678;2022-12-18T23:43:32;17.70;;;9.93;;
30072;SDS011;16897;52.422;13.678;2022-12-18T23:47:37;17.42;;;10.10;;
30072;SDS011;16897;52.422;13.678;2022-12-18T23:51:39;20.33;;;9.98;;
30072;SDS011;16897;52.422;13.678;2022-12-18T23:55:42;21.65;;;10.77;;
30072;SDS011;16897;52.422;13.678;2022-12-18T23:59:44;19.08;;;10.25;;
